Austin (AUS/KAUS)

Information

Location
Austin, TX
Local Time
06:50 / 6:50 am
GMT Time
12:50 / 12:50 pm
Gates
Unassigned
No FAA reported delays
METAR KAUS 161153Z 00000KT 9SM SCT013 OVC070 17/17 A2993 RMK AO2 SLP129 60099 70124 T01720167 10178 20167 53003
TAF KAUS 161136Z 1612/1718 28003KT 6SM BR BKN030 BKN070 FM161500 02004KT P6SM BKN035 FM170100 07004KT P6SM OVC020 FM170500 02007KT 5SM BR VCSH OVC010 FM170900 01010KT 6SM BR VCSH OVC008
  • No charts available